createdAt,value
2017-12-22T00:00:27.890Z,9.13
2017-12-22T00:02:55.390Z,9.05
2017-12-22T00:05:23.996Z,9.01
2017-12-22T00:07:51.885Z,9.02
2017-12-22T00:10:19.480Z,9.12
2017-12-22T00:12:47.032Z,8.96
2017-12-22T00:15:14.761Z,8.82
2017-12-22T00:17:42.364Z,8.91
2017-12-22T00:20:10.323Z,8.88
2017-12-22T00:22:37.968Z,8.83
2017-12-22T00:25:05.490Z,8.96
2017-12-22T00:27:35.154Z,8.98
2017-12-22T00:30:03.217Z,9.05
2017-12-22T00:32:30.781Z,9.15
2017-12-22T00:35:01.317Z,9.22
2017-12-22T00:37:30.189Z,9.21
2017-12-22T00:39:57.753Z,9.23
2017-12-22T00:42:25.638Z,9.05
2017-12-22T00:44:53.752Z,9.17
2017-12-22T00:47:22.237Z,8.78
2017-12-22T00:49:50.333Z,8.81
2017-12-22T00:52:18.223Z,9.01
2017-12-22T00:54:45.781Z,9.18
2017-12-22T00:57:15.133Z,9.21
2017-12-22T00:59:43.302Z,9.25
2017-12-22T01:02:10.864Z,9.36
2017-12-22T01:04:38.397Z,9.33
2017-12-22T01:07:06.037Z,9.41
2017-12-22T01:09:33.815Z,9.39
2017-12-22T01:12:03.043Z,9.21
2017-12-22T01:14:31.187Z,9.24
2017-12-22T01:17:04.453Z,9.26
2017-12-22T01:19:33.303Z,9.07
2017-12-22T01:22:01.668Z,9.21
2017-12-22T01:24:30.154Z,9.26
2017-12-22T01:26:59.283Z,9.24
2017-12-22T01:29:28.347Z,9.08
2017-12-22T01:31:57.250Z,9.00
2017-12-22T01:34:24.825Z,9.15
2017-12-22T01:36:52.525Z,9.09
2017-12-22T01:39:20.300Z,9.19
2017-12-22T01:41:48.863Z,9.02
2017-12-22T01:44:16.793Z,9.07
2017-12-22T01:46:44.348Z,9.14
2017-12-22T01:49:12.527Z,9.04
2017-12-22T01:51:40.160Z,9.03
2017-12-22T01:54:08.680Z,9.02
2017-12-22T01:56:36.199Z,9.03
2017-12-22T01:59:05.174Z,9.06
2017-12-22T02:01:33.792Z,9.02
2017-12-22T02:04:03.410Z,8.81
2017-12-22T02:06:33.324Z,8.92
2017-12-22T02:09:00.948Z,9.02
2017-12-22T02:11:30.014Z,8.93
2017-12-22T02:13:57.656Z,8.90
2017-12-22T02:16:26.658Z,8.91
2017-12-22T02:18:54.254Z,8.60
2017-12-22T02:21:22.419Z,8.78
2017-12-22T02:23:50.002Z,8.79
2017-12-22T02:26:18.502Z,8.71
2017-12-22T02:28:46.984Z,8.69
2017-12-22T02:31:14.588Z,8.30
2017-12-22T02:33:42.973Z,8.54
2017-12-22T02:36:11.120Z,8.66
2017-12-22T02:38:38.668Z,8.83
2017-12-22T02:41:06.155Z,8.78
2017-12-22T02:43:35.642Z,8.85
2017-12-22T02:46:04.848Z,9.01
2017-12-22T02:48:33.352Z,8.95
2017-12-22T02:51:01.444Z,8.62
2017-12-22T02:53:30.212Z,8.61
2017-12-22T02:55:59.830Z,8.51
2017-12-22T02:58:28.833Z,8.78
2017-12-22T03:00:59.044Z,8.81
2017-12-22T03:03:26.676Z,8.75
2017-12-22T03:05:55.934Z,8.35
2017-12-22T03:08:23.546Z,8.25
2017-12-22T03:10:51.116Z,8.21
2017-12-22T03:13:19.168Z,8.27
2017-12-22T03:15:47.534Z,8.18
2017-12-22T03:18:15.142Z,8.46
2017-12-22T03:20:42.766Z,8.44
2017-12-22T03:23:13.244Z,8.14
2017-12-22T03:25:42.149Z,8.29
2017-12-22T03:28:09.751Z,8.57
2017-12-22T03:30:38.324Z,8.58
2017-12-22T03:33:06.743Z,8.61
2017-12-22T03:35:35.772Z,8.41
2017-12-22T03:38:03.381Z,8.33
2017-12-22T03:40:31.087Z,8.23
2017-12-22T03:42:59.835Z,8.04
2017-12-22T03:45:27.432Z,8.18
2017-12-22T03:47:55.988Z,8.28
2017-12-22T03:50:23.585Z,8.27
2017-12-22T03:52:51.383Z,8.17
2017-12-22T03:55:19.490Z,8.16
2017-12-22T03:57:48.080Z,8.11
2017-12-22T04:00:16.029Z,8.12
2017-12-22T04:02:45.291Z,8.05
2017-12-22T04:05:12.892Z,8.16
2017-12-22T04:07:41.173Z,8.03
2017-12-22T04:10:09.264Z,7.92
2017-12-22T04:12:37.820Z,8.01
2017-12-22T04:15:06.220Z,8.14
2017-12-22T04:17:34.343Z,8.13
2017-12-22T04:20:02.932Z,8.11
2017-12-22T04:22:30.567Z,8.17
2017-12-22T04:24:58.075Z,7.98
2017-12-22T04:27:27.846Z,7.94
2017-12-22T04:29:55.830Z,8.03
2017-12-22T04:32:24.198Z,7.95
2017-12-22T04:34:51.834Z,8.03
2017-12-22T04:37:19.421Z,8.08
2017-12-22T04:39:47.000Z,7.89
2017-12-22T04:42:14.720Z,8.07
2017-12-22T04:44:43.127Z,7.55
2017-12-22T04:47:12.999Z,8.17
2017-12-22T04:49:41.333Z,8.25
2017-12-22T17:18:57.336Z,10.08
2017-12-22T17:21:26.532Z,10.06
2017-12-22T17:23:57.453Z,10.02
2017-12-22T17:26:26.410Z,9.81
2017-12-22T17:28:58.727Z,9.79
2017-12-22T17:31:27.024Z,9.83
2017-12-22T17:33:54.641Z,9.70
2017-12-22T17:36:23.182Z,9.62
2017-12-22T17:38:53.738Z,9.77
2017-12-22T17:41:21.355Z,9.82
2017-12-22T17:43:50.617Z,9.89
2017-12-22T17:46:25.665Z,9.73
2017-12-22T17:48:54.425Z,9.70
2017-12-22T17:51:22.843Z,9.70
2017-12-22T17:53:50.496Z,9.48
2017-12-22T17:56:24.462Z,9.49
2017-12-22T17:58:54.000Z,9.63
2017-12-22T18:01:22.621Z,9.54
2017-12-22T18:03:50.121Z,9.66
2017-12-22T18:06:18.401Z,9.75
2017-12-22T18:08:52.446Z,9.75
2017-12-22T18:11:31.366Z,9.69
2017-12-22T18:14:12.184Z,9.27
2017-12-22T18:16:51.885Z,9.52
2017-12-22T18:19:21.701Z,9.37
2017-12-22T18:22:01.261Z,9.43
2017-12-22T18:24:33.897Z,9.36
2017-12-22T18:27:08.702Z,9.51
2017-12-22T18:29:36.929Z,9.52
2017-12-22T18:32:05.397Z,9.23
2017-12-22T18:34:37.124Z,9.52
2017-12-22T18:37:08.832Z,9.55
2017-12-22T18:39:38.087Z,9.66
2017-12-22T18:42:06.876Z,9.45
2017-12-22T18:44:35.045Z,9.57
2017-12-22T18:47:04.350Z,9.72
2017-12-22T18:49:42.080Z,9.74
2017-12-22T18:52:11.018Z,9.62
2017-12-22T18:54:47.859Z,9.59
2017-12-22T18:57:16.854Z,9.64
2017-12-22T18:59:47.305Z,9.71
2017-12-22T19:02:24.395Z,9.77
2017-12-22T19:04:52.024Z,9.70
2017-12-22T19:07:19.738Z,9.79
2017-12-22T19:09:49.180Z,9.86
2017-12-22T19:12:17.396Z,9.90
2017-12-22T19:14:45.388Z,9.96
2017-12-22T19:17:16.708Z,9.91
2017-12-22T19:19:46.416Z,10.07
2017-12-22T19:22:15.359Z,10.17
2017-12-22T19:24:42.901Z,10.06
2017-12-22T19:27:10.480Z,9.73
2017-12-22T19:29:38.983Z,9.83
2017-12-22T19:32:06.971Z,9.91
2017-12-22T19:34:36.429Z,9.93
2017-12-22T19:37:04.776Z,9.94
2017-12-22T19:39:32.549Z,9.97
2017-12-22T19:42:00.154Z,9.95
2017-12-22T19:44:27.800Z,9.81
2017-12-22T19:46:55.445Z,9.91
2017-12-22T19:49:22.971Z,9.96
2017-12-22T19:51:50.564Z,10.04
2017-12-22T19:54:19.121Z,10.06
2017-12-22T19:58:24.248Z,9.99
2017-12-22T20:00:52.314Z,9.58
2017-12-22T20:03:28.201Z,9.74
2017-12-22T20:05:55.963Z,9.97
2017-12-22T20:08:24.311Z,9.96
2017-12-22T20:10:52.520Z,9.99
2017-12-22T20:13:21.695Z,9.93
2017-12-22T20:15:49.742Z,9.87
2017-12-22T20:18:17.540Z,9.92
2017-12-22T20:20:47.096Z,9.90
2017-12-22T20:23:15.113Z,9.91
2017-12-22T20:25:42.861Z,9.89
2017-12-22T20:28:12.736Z,9.94
2017-12-22T20:30:40.292Z,10.01
2017-12-22T20:33:08.800Z,9.97
2017-12-22T20:35:36.496Z,10.00
2017-12-22T20:38:04.134Z,9.98
2017-12-22T20:40:32.310Z,10.01
2017-12-22T20:42:59.897Z,9.98
2017-12-22T20:45:27.910Z,9.76
2017-12-22T20:47:55.886Z,10.08
2017-12-22T20:50:24.173Z,10.04
2017-12-22T20:52:51.718Z,10.15
2017-12-22T20:55:19.300Z,10.06
2017-12-22T20:57:47.322Z,10.10
2017-12-22T21:00:15.053Z,10.12
2017-12-22T21:02:42.782Z,9.52
2017-12-22T21:05:10.863Z,9.87
2017-12-22T21:07:39.566Z,9.95
2017-12-22T21:10:08.267Z,9.88
2017-12-22T21:12:36.345Z,9.82
2017-12-22T21:15:04.752Z,9.84
2017-12-22T21:17:32.522Z,9.81
2017-12-22T21:20:00.610Z,9.68
2017-12-22T21:22:28.154Z,9.92
2017-12-22T21:24:55.836Z,9.96
2017-12-22T21:27:24.402Z,9.97
2017-12-22T21:29:53.241Z,9.94
2017-12-22T21:32:20.768Z,9.95
2017-12-22T21:34:48.777Z,10.05
2017-12-22T21:37:17.759Z,10.09
2017-12-22T21:39:46.481Z,10.04
2017-12-22T21:42:14.150Z,9.92
2017-12-22T21:44:41.734Z,9.98
2017-12-22T21:47:09.568Z,9.87
2017-12-22T21:49:37.427Z,10.09
2017-12-22T21:52:05.300Z,10.13
2017-12-22T21:54:32.905Z,10.22
2017-12-22T21:57:01.348Z,10.07
2017-12-22T21:59:28.862Z,10.07
2017-12-22T22:01:56.657Z,9.84
2017-12-22T22:04:24.562Z,9.68
2017-12-22T22:06:53.170Z,9.70
2017-12-22T22:09:22.406Z,9.94
2017-12-22T22:11:55.751Z,9.89
2017-12-22T22:14:24.199Z,9.93
2017-12-22T22:16:52.914Z,9.78
2017-12-22T22:19:20.732Z,9.90
2017-12-22T22:21:52.942Z,10.01
2017-12-22T22:24:20.659Z,9.94
2017-12-22T22:26:49.075Z,10.03
2017-12-22T22:29:18.042Z,10.07
2017-12-22T22:31:45.681Z,10.07
2017-12-22T22:34:13.483Z,10.02
2017-12-22T22:36:41.810Z,9.98
2017-12-22T22:39:10.856Z,9.88
2017-12-22T22:41:39.355Z,9.99
2017-12-22T22:44:07.214Z,9.94
2017-12-22T22:46:36.091Z,9.80
2017-12-22T22:49:03.831Z,9.74
2017-12-22T22:51:31.604Z,9.71
2017-12-22T22:53:59.253Z,9.89
2017-12-22T22:56:26.813Z,9.99
2017-12-22T22:58:54.411Z,10.00
2017-12-22T23:01:22.043Z,10.00
2017-12-22T23:03:50.021Z,9.94
2017-12-22T23:06:19.608Z,10.01
2017-12-22T23:08:47.982Z,9.86
2017-12-22T23:11:18.129Z,9.93
2017-12-22T23:13:45.670Z,9.89
2017-12-22T23:16:13.347Z,9.90
2017-12-22T23:18:40.887Z,9.89
2017-12-22T23:21:08.430Z,9.91
2017-12-22T23:23:37.051Z,9.88
2017-12-22T23:26:04.891Z,9.82
2017-12-22T23:28:32.480Z,9.91
2017-12-22T23:31:00.055Z,9.85
2017-12-22T23:33:27.667Z,9.70
2017-12-22T23:35:55.288Z,9.63
2017-12-22T23:38:23.084Z,9.29
2017-12-22T23:40:51.137Z,9.40
2017-12-22T23:43:21.197Z,9.55
2017-12-22T23:45:52.863Z,9.37
2017-12-22T23:48:21.538Z,9.51
2017-12-22T23:50:50.172Z,9.51
2017-12-22T23:53:17.935Z,9.43
2017-12-22T23:55:46.275Z,9.53
2017-12-22T23:58:15.358Z,9.59
